R51 EFKU-EFKU

Flight info

Callsign R51
Flight time 0h 21m
Altitude 4000
Route TC
Aircraft HAWK/M-SDGIRY/C

Departure

Time 2026-05-06 13:02
Airport Kuopio Airport (EFKU)

Arrival

Time 2026-05-06 13:23
Airport Kuopio Airport (EFKU)
Time Latitude Longitude Altitude Speed Heading
2026-05-06 12:51 63.00395 27.79064 323 ft 0 kts 246°
2026-05-06 12:58 63.00391 27.79047 323 ft 5 kts 247°
2026-05-06 12:58 63.00393 27.79018 321 ft 0 kts 336°
2026-05-06 12:58 63.00413 27.78985 322 ft 9 kts 323°
2026-05-06 12:58 63.00427 27.78975 322 ft 7 kts 19°
2026-05-06 12:59 63.00490 27.79094 322 ft 20 kts 36°
2026-05-06 12:59 63.00597 27.79266 322 ft 18 kts 39°
2026-05-06 12:59 63.00607 27.79389 321 ft 6 kts 131°
2026-05-06 12:59 63.00582 27.79435 322 ft 5 kts 143°
2026-05-06 13:00 63.00488 27.79528 323 ft 18 kts 156°
2026-05-06 13:00 63.00359 27.79641 321 ft 19 kts 158°
2026-05-06 13:00 63.00247 27.79751 324 ft 16 kts 156°
2026-05-06 13:00 63.00155 27.79843 324 ft 13 kts 158°
2026-05-06 13:01 63.00074 27.79909 322 ft 18 kts 160°
2026-05-06 13:01 62.99967 27.80134 325 ft 19 kts 79°
2026-05-06 13:01 63.00063 27.80229 323 ft 15 kts
2026-05-06 13:01 63.00287 27.80099 322 ft 79 kts 338°
2026-05-06 13:02 63.01179 27.79354 434 ft 188 kts 333°
2026-05-06 13:02 63.02674 27.78100 1406 ft 270 kts 335°
2026-05-06 13:02 63.04470 27.76190 2734 ft 287 kts 317°
2026-05-06 13:02 63.05140 27.72702 3247 ft 237 kts 258°
2026-05-06 13:03 63.04098 27.69791 2688 ft 247 kts 211°
2026-05-06 13:03 63.02486 27.69556 2593 ft 227 kts 168°
2026-05-06 13:03 63.01084 27.70818 2585 ft 212 kts 161°
2026-05-06 13:03 62.99732 27.72072 2603 ft 207 kts 163°
2026-05-06 13:04 62.98445 27.73457 2681 ft 204 kts 156°
2026-05-06 13:04 62.97136 27.75301 2968 ft 256 kts 148°
2026-05-06 13:04 62.95403 27.78049 3274 ft 340 kts 146°
2026-05-06 13:04 62.93767 27.80784 3766 ft 269 kts 145°
2026-05-06 13:05 62.92864 27.83827 3757 ft 261 kts 73°
2026-05-06 13:05 62.94474 27.85770 2969 ft 314 kts 343°
2026-05-06 13:05 62.96412 27.84099 2070 ft 283 kts 334°
2026-05-06 13:05 62.98025 27.82458 1154 ft 220 kts 329°
2026-05-06 13:06 62.98849 27.81601 634 ft 178 kts 328°
2026-05-06 13:06 62.99808 27.80645 328 ft 124 kts 328°
2026-05-06 13:06 63.00618 27.79846 329 ft 163 kts 331°
2026-05-06 13:06 63.01810 27.78807 1601 ft 179 kts 332°
2026-05-06 13:07 63.02985 27.77570 3167 ft 189 kts 327°
2026-05-06 13:07 63.04323 27.75827 3155 ft 250 kts 322°
2026-05-06 13:07 63.04955 27.72986 3645 ft 193 kts 261°
2026-05-06 13:07 63.04242 27.70588 3512 ft 207 kts 232°
2026-05-06 13:08 63.02990 27.68083 3951 ft 273 kts 205°
2026-05-06 13:08 63.01165 27.68177 4358 ft 256 kts 171°
2026-05-06 13:08 62.99494 27.69206 4357 ft 240 kts 166°
2026-05-06 13:08 62.97965 27.70387 4463 ft 230 kts 166°
2026-05-06 13:09 62.96442 27.71555 4592 ft 237 kts 165°
2026-05-06 13:09 62.94864 27.72889 4756 ft 244 kts 161°
2026-05-06 13:09 62.93342 27.74405 5055 ft 246 kts 159°
2026-05-06 13:09 62.91789 27.76263 4312 ft 276 kts 136°
2026-05-06 13:10 62.91632 27.80163 3967 ft 255 kts 59°
2026-05-06 13:10 62.92719 27.82728 4010 ft 216 kts 25°
2026-05-06 13:10 62.94041 27.84357 3350 ft 218 kts 11°
2026-05-06 13:10 62.95558 27.84564 2526 ft 220 kts 340°
2026-05-06 13:11 62.96982 27.83387 1895 ft 218 kts 333°
2026-05-06 13:11 62.98386 27.82105 1046 ft 219 kts 331°
2026-05-06 13:11 62.99782 27.80742 499 ft 219 kts 334°
2026-05-06 13:11 63.01418 27.79382 914 ft 275 kts 338°
2026-05-06 13:12 63.01494 27.76161 1347 ft 281 kts 228°
2026-05-06 13:12 62.99502 27.76592 2541 ft 315 kts 129°
2026-05-06 13:12 62.98417 27.80335 3008 ft 261 kts 122°
2026-05-06 13:12 62.97721 27.83700 3110 ft 226 kts 108°
2026-05-06 13:13 62.97369 27.87046 2532 ft 227 kts 104°
2026-05-06 13:13 62.96333 27.89285 2007 ft 245 kts 204°
2026-05-06 13:13 62.96571 27.86439 1508 ft 250 kts 314°
2026-05-06 13:13 62.97633 27.84135 1244 ft 183 kts 308°
2026-05-06 13:14 62.98462 27.82284 964 ft 156 kts 315°
2026-05-06 13:14 62.99392 27.81054 512 ft 164 kts 328°
2026-05-06 13:14 63.00379 27.80117 324 ft 137 kts 329°
2026-05-06 13:14 63.01304 27.79272 398 ft 170 kts 329°
2026-05-06 13:15 63.02573 27.78035 1317 ft 221 kts 323°
2026-05-06 13:15 63.04349 27.77024 2046 ft 305 kts 355°
2026-05-06 13:15 63.06436 27.76554 3573 ft 276 kts 343°
2026-05-06 13:15 63.08191 27.75689 3296 ft 246 kts 341°
2026-05-06 13:16 63.09686 27.74742 3370 ft 207 kts 340°
2026-05-06 13:16 63.11112 27.74390 3074 ft 217 kts 360°
2026-05-06 13:16 63.12547 27.75810 2697 ft 246 kts 45°
2026-05-06 13:16 63.12897 27.79536 2013 ft 269 kts 111°
2026-05-06 13:17 63.11717 27.82415 2059 ft 242 kts 141°
2026-05-06 13:17 63.10270 27.84506 1640 ft 248 kts 159°
2026-05-06 13:17 63.08720 27.86071 1706 ft 241 kts 158°
2026-05-06 13:17 63.07223 27.87831 1675 ft 243 kts 153°
2026-05-06 13:18 63.05646 27.88888 1443 ft 243 kts 176°
2026-05-06 13:18 63.04035 27.88156 1056 ft 236 kts 218°
2026-05-06 13:18 63.02840 27.85951 1636 ft 216 kts 223°
2026-05-06 13:18 63.01749 27.83651 1191 ft 230 kts 236°
2026-05-06 13:19 63.00945 27.80974 3374 ft 200 kts 240°
2026-05-06 13:19 63.00049 27.78209 4771 ft 243 kts 227°
2026-05-06 13:19 62.98525 27.77145 5502 ft 240 kts 169°
2026-05-06 13:19 62.97702 27.79975 5419 ft 248 kts 72°
2026-05-06 13:20 62.98904 27.81904 5326 ft 204 kts 356°
2026-05-06 13:20 63.00349 27.81534 4629 ft 242 kts 340°
2026-05-06 13:20 63.01370 27.79038 4147 ft 218 kts 269°
2026-05-06 13:20 63.00558 27.76862 4335 ft 184 kts 197°
2026-05-06 13:21 62.99361 27.77428 4014 ft 203 kts 143°
2026-05-06 13:21 62.99106 27.80718 4371 ft 243 kts 46°
2026-05-06 13:21 63.00616 27.81178 4365 ft 239 kts 316°
2026-05-06 13:21 63.00102 27.78593 3610 ft 238 kts 197°
2026-05-06 13:22 62.98371 27.78934 1651 ft 268 kts 161°
2026-05-06 13:22 62.96959 27.80427 1315 ft 205 kts 158°
2026-05-06 13:22 62.95850 27.82174 1158 ft 189 kts 120°
2026-05-06 13:22 62.96259 27.84327 1737 ft 180 kts 347°
2026-05-06 13:23 62.97595 27.83120 1537 ft 211 kts 329°
2026-05-06 13:23 62.98817 27.81745 661 ft 174 kts 327°
2026-05-06 13:23 62.99775 27.80672 332 ft 141 kts 328°
2026-05-06 13:23 63.00321 27.80116 322 ft 31 kts 337°
2026-05-06 13:24 63.00490 27.79946 323 ft 17 kts
2026-05-06 13:24 63.00582 27.79886 324 ft 8 kts 331°
2026-05-06 13:24 63.00689 27.79720 321 ft 12 kts 276°